sensor_id;sensor_type;location;lat;lon;timestamp;pressure;altitude;pressure_sealevel;temperature;humidity
6393;BME280;3229;42.674;23.282;2023-02-27T00:01:01;93744.63;;;15.65;48.68
6393;BME280;3229;42.674;23.282;2023-02-27T00:03:28;93739.81;;;15.62;48.67
6393;BME280;3229;42.674;23.282;2023-02-27T00:05:55;93747.38;;;15.63;48.70
6393;BME280;3229;42.674;23.282;2023-02-27T00:08:23;93757.69;;;15.63;48.85
6393;BME280;3229;42.674;23.282;2023-02-27T00:10:50;93745.19;;;15.60;48.69
6393;BME280;3229;42.674;23.282;2023-02-27T00:13:18;93751.13;;;15.61;48.74
6393;BME280;3229;42.674;23.282;2023-02-27T00:15:45;93747.94;;;15.59;48.93
6393;BME280;3229;42.674;23.282;2023-02-27T00:18:12;93740.78;;;15.54;48.70
6393;BME280;3229;42.674;23.282;2023-02-27T00:20:39;93752.44;;;15.50;48.85
6393;BME280;3229;42.674;23.282;2023-02-27T00:23:06;93753.66;;;15.54;48.70
6393;BME280;3229;42.674;23.282;2023-02-27T00:25:34;93763.38;;;15.52;48.95
6393;BME280;3229;42.674;23.282;2023-02-27T00:28:01;93749.06;;;15.49;48.80
6393;BME280;3229;42.674;23.282;2023-02-27T00:30:30;93737.38;;;15.47;48.95
6393;BME280;3229;42.674;23.282;2023-02-27T00:32:56;93746.91;;;15.46;48.98
6393;BME280;3229;42.674;23.282;2023-02-27T00:35:23;93747.28;;;15.43;49.12
6393;BME280;3229;42.674;23.282;2023-02-27T00:37:50;93752.00;;;15.40;49.03
6393;BME280;3229;42.674;23.282;2023-02-27T00:40:17;93749.81;;;15.37;49.13
6393;BME280;3229;42.674;23.282;2023-02-27T00:42:44;93752.56;;;15.35;49.34
6393;BME280;3229;42.674;23.282;2023-02-27T00:45:13;93748.78;;;15.31;49.39
6393;BME280;3229;42.674;23.282;2023-02-27T00:47:41;93741.25;;;15.29;49.41
6393;BME280;3229;42.674;23.282;2023-02-27T00:50:09;93743.41;;;15.26;49.36
6393;BME280;3229;42.674;23.282;2023-02-27T00:52:36;93749.56;;;15.25;49.46
6393;BME280;3229;42.674;23.282;2023-02-27T00:55:03;93746.97;;;15.25;49.56
6393;BME280;3229;42.674;23.282;2023-02-27T00:57:30;93754.88;;;15.23;49.49
6393;BME280;3229;42.674;23.282;2023-02-27T00:59:56;93753.91;;;15.24;49.72
6393;BME280;3229;42.674;23.282;2023-02-27T01:02:23;93758.06;;;15.25;49.48
6393;BME280;3229;42.674;23.282;2023-02-27T01:04:51;93740.84;;;15.26;49.68
6393;BME280;3229;42.674;23.282;2023-02-27T01:07:18;93739.06;;;15.26;49.71
6393;BME280;3229;42.674;23.282;2023-02-27T01:09:45;93747.41;;;15.28;49.39
6393;BME280;3229;42.674;23.282;2023-02-27T01:12:11;93749.16;;;15.28;49.40
6393;BME280;3229;42.674;23.282;2023-02-27T01:14:38;93740.28;;;15.30;49.59
6393;BME280;3229;42.674;23.282;2023-02-27T01:17:05;93738.91;;;15.35;49.74
6393;BME280;3229;42.674;23.282;2023-02-27T01:19:32;93740.13;;;15.39;49.65
6393;BME280;3229;42.674;23.282;2023-02-27T01:22:00;93740.53;;;15.42;49.42
6393;BME280;3229;42.674;23.282;2023-02-27T01:24:27;93740.72;;;15.41;49.55
6393;BME280;3229;42.674;23.282;2023-02-27T01:26:54;93748.69;;;15.46;49.57
6393;BME280;3229;42.674;23.282;2023-02-27T01:29:20;93740.97;;;15.46;49.50
6393;BME280;3229;42.674;23.282;2023-02-27T01:31:47;93767.50;;;15.46;49.10
6393;BME280;3229;42.674;23.282;2023-02-27T01:34:14;93746.50;;;15.49;49.65
6393;BME280;3229;42.674;23.282;2023-02-27T01:36:41;93758.41;;;15.50;49.56
6393;BME280;3229;42.674;23.282;2023-02-27T01:39:09;93778.63;;;15.53;49.47
6393;BME280;3229;42.674;23.282;2023-02-27T01:41:36;93782.00;;;15.54;49.49
6393;BME280;3229;42.674;23.282;2023-02-27T01:44:06;93800.88;;;15.54;49.63
6393;BME280;3229;42.674;23.282;2023-02-27T01:46:33;93809.56;;;15.53;49.67
6393;BME280;3229;42.674;23.282;2023-02-27T01:49:03;93812.94;;;15.54;49.64
6393;BME280;3229;42.674;23.282;2023-02-27T01:51:36;93807.78;;;15.54;49.75
6393;BME280;3229;42.674;23.282;2023-02-27T01:54:06;93812.13;;;15.53;49.45
6393;BME280;3229;42.674;23.282;2023-02-27T01:56:35;93829.22;;;15.54;49.74
6393;BME280;3229;42.674;23.282;2023-02-27T01:59:06;93810.19;;;15.55;49.83
6393;BME280;3229;42.674;23.282;2023-02-27T02:01:34;93809.56;;;15.53;49.91
6393;BME280;3229;42.674;23.282;2023-02-27T02:04:06;93832.56;;;15.55;49.78
6393;BME280;3229;42.674;23.282;2023-02-27T02:06:37;93825.63;;;15.55;49.71
6393;BME280;3229;42.674;23.282;2023-02-27T02:09:06;93838.53;;;15.55;49.84
6393;BME280;3229;42.674;23.282;2023-02-27T02:11:36;93862.31;;;15.57;49.87
6393;BME280;3229;42.674;23.282;2023-02-27T02:14:03;93882.94;;;15.57;49.80
6393;BME280;3229;42.674;23.282;2023-02-27T02:16:54;93883.56;;;15.60;49.98
6393;BME280;3229;42.674;23.282;2023-02-27T02:19:52;93959.44;;;15.57;50.04
6393;BME280;3229;42.674;23.282;2023-02-27T02:25:57;94013.69;;;15.49;51.05
6393;BME280;3229;42.674;23.282;2023-02-27T02:31:45;94016.50;;;15.32;51.95
6393;BME280;3229;42.674;23.282;2023-02-27T02:40:37;93971.09;;;15.10;52.51
6393;BME280;3229;42.674;23.282;2023-02-27T02:43:09;93980.63;;;15.10;52.81
6393;BME280;3229;42.674;23.282;2023-02-27T02:45:43;93983.53;;;15.06;52.85
6393;BME280;3229;42.674;23.282;2023-02-27T02:48:17;93997.59;;;15.04;52.99
6393;BME280;3229;42.674;23.282;2023-02-27T02:50:49;94018.38;;;15.02;53.41
6393;BME280;3229;42.674;23.282;2023-02-27T02:53:26;94023.09;;;14.99;53.44
6393;BME280;3229;42.674;23.282;2023-02-27T02:56:01;94025.03;;;14.97;53.61
6393;BME280;3229;42.674;23.282;2023-02-27T02:58:34;94030.53;;;14.94;53.96
6393;BME280;3229;42.674;23.282;2023-02-27T03:01:10;94038.66;;;14.91;54.08
6393;BME280;3229;42.674;23.282;2023-02-27T03:03:43;94053.47;;;14.89;53.98
6393;BME280;3229;42.674;23.282;2023-02-27T03:06:16;94053.66;;;14.87;54.31
6393;BME280;3229;42.674;23.282;2023-02-27T03:08:48;94065.72;;;14.87;54.33
6393;BME280;3229;42.674;23.282;2023-02-27T03:11:17;94066.06;;;14.84;54.50
6393;BME280;3229;42.674;23.282;2023-02-27T03:13:46;94076.56;;;14.82;54.63
6393;BME280;3229;42.674;23.282;2023-02-27T03:16:22;94078.06;;;14.76;54.85
6393;BME280;3229;42.674;23.282;2023-02-27T03:18:54;94073.28;;;14.73;55.01
6393;BME280;3229;42.674;23.282;2023-02-27T03:21:26;94084.72;;;14.71;55.16
6393;BME280;3229;42.674;23.282;2023-02-27T03:23:56;94080.09;;;14.66;55.08
6393;BME280;3229;42.674;23.282;2023-02-27T03:26:31;94079.22;;;14.59;55.42
6393;BME280;3229;42.674;23.282;2023-02-27T03:29:00;94098.13;;;14.51;55.16
6393;BME280;3229;42.674;23.282;2023-02-27T03:31:33;94104.56;;;14.47;55.26
6393;BME280;3229;42.674;23.282;2023-02-27T03:34:07;94126.00;;;14.40;55.37
6393;BME280;3229;42.674;23.282;2023-02-27T03:36:42;94137.81;;;14.34;55.45
6393;BME280;3229;42.674;23.282;2023-02-27T03:39:18;94152.16;;;14.28;55.66
6393;BME280;3229;42.674;23.282;2023-02-27T03:41:51;94148.50;;;14.23;55.43
6393;BME280;3229;42.674;23.282;2023-02-27T03:44:26;94155.16;;;14.17;55.73
6393;BME280;3229;42.674;23.282;2023-02-27T03:46:55;94152.81;;;14.08;55.76
6393;BME280;3229;42.674;23.282;2023-02-27T03:49:22;94168.06;;;14.09;55.82
6393;BME280;3229;42.674;23.282;2023-02-27T03:51:49;94178.88;;;14.04;55.73
6393;BME280;3229;42.674;23.282;2023-02-27T03:54:19;94176.81;;;14.00;55.74
6393;BME280;3229;42.674;23.282;2023-02-27T03:56:50;94191.78;;;13.96;55.80
6393;BME280;3229;42.674;23.282;2023-02-27T03:59:20;94186.16;;;13.93;55.95
6393;BME280;3229;42.674;23.282;2023-02-27T04:01:49;94187.00;;;13.85;56.17
6393;BME280;3229;42.674;23.282;2023-02-27T04:04:17;94199.25;;;13.83;55.88
6393;BME280;3229;42.674;23.282;2023-02-27T04:06:46;94196.19;;;13.79;55.94
6393;BME280;3229;42.674;23.282;2023-02-27T04:09:42;94200.06;;;13.75;56.04
6393;BME280;3229;42.674;23.282;2023-02-27T04:12:28;94215.03;;;13.72;55.98
6393;BME280;3229;42.674;23.282;2023-02-27T04:15:06;94218.09;;;13.67;56.13
6393;BME280;3229;42.674;23.282;2023-02-27T04:17:46;94225.19;;;13.65;56.09
6393;BME280;3229;42.674;23.282;2023-02-27T04:20:35;94222.94;;;13.62;56.12
6393;BME280;3229;42.674;23.282;2023-02-27T04:23:05;94232.75;;;13.59;56.15
6393;BME280;3229;42.674;23.282;2023-02-27T04:25:42;94236.47;;;13.56;56.45
6393;BME280;3229;42.674;23.282;2023-02-27T04:28:16;94239.38;;;13.53;56.29
6393;BME280;3229;42.674;23.282;2023-02-27T04:30:57;94238.91;;;13.49;56.25
6393;BME280;3229;42.674;23.282;2023-02-27T04:33:31;94254.50;;;13.48;56.34
6393;BME280;3229;42.674;23.282;2023-02-27T04:36:05;94264.13;;;13.46;56.43
6393;BME280;3229;42.674;23.282;2023-02-27T04:38:36;94274.75;;;13.43;56.46
6393;BME280;3229;42.674;23.282;2023-02-27T04:41:07;94279.03;;;13.42;56.50
6393;BME280;3229;42.674;23.282;2023-02-27T04:43:38;94290.47;;;13.40;56.55
6393;BME280;3229;42.674;23.282;2023-02-27T04:46:08;94295.75;;;13.38;56.75
6393;BME280;3229;42.674;23.282;2023-02-27T04:48:43;94293.34;;;13.37;56.61
6393;BME280;3229;42.674;23.282;2023-02-27T04:51:13;94301.25;;;13.35;56.55
6393;BME280;3229;42.674;23.282;2023-02-27T04:53:45;94311.66;;;13.34;56.45
6393;BME280;3229;42.674;23.282;2023-02-27T04:56:16;94306.69;;;13.32;56.59
6393;BME280;3229;42.674;23.282;2023-02-27T04:58:48;94298.03;;;13.25;56.51
6393;BME280;3229;42.674;23.282;2023-02-27T05:01:21;94310.22;;;13.31;56.42
6393;BME280;3229;42.674;23.282;2023-02-27T05:03:51;94314.72;;;13.29;56.61
6393;BME280;3229;42.674;23.282;2023-02-27T05:06:22;94313.44;;;13.25;56.75
6393;BME280;3229;42.674;23.282;2023-02-27T05:08:55;94332.06;;;13.27;56.67
6393;BME280;3229;42.674;23.282;2023-02-27T05:11:28;94338.00;;;13.27;56.55
6393;BME280;3229;42.674;23.282;2023-02-27T05:14:04;94341.38;;;13.28;56.72
6393;BME280;3229;42.674;23.282;2023-02-27T05:16:35;94341.53;;;13.26;56.59
6393;BME280;3229;42.674;23.282;2023-02-27T05:19:04;94339.78;;;13.27;56.58
6393;BME280;3229;42.674;23.282;2023-02-27T05:21:35;94343.31;;;13.26;56.45
6393;BME280;3229;42.674;23.282;2023-02-27T05:24:13;94338.31;;;13.24;56.73
6393;BME280;3229;42.674;23.282;2023-02-27T05:27:02;94341.84;;;13.23;56.66
6393;BME280;3229;42.674;23.282;2023-02-27T05:29:40;94345.22;;;13.24;56.79
6393;BME280;3229;42.674;23.282;2023-02-27T05:32:18;94357.09;;;13.25;56.65
6393;BME280;3229;42.674;23.282;2023-02-27T05:34:50;94364.78;;;13.25;56.67
6393;BME280;3229;42.674;23.282;2023-02-27T05:37:22;94377.50;;;13.26;56.65
6393;BME280;3229;42.674;23.282;2023-02-27T05:39:51;94374.91;;;13.26;56.47
6393;BME280;3229;42.674;23.282;2023-02-27T05:42:23;94380.06;;;13.26;56.67
6393;BME280;3229;42.674;23.282;2023-02-27T05:44:57;94386.78;;;13.27;56.67
6393;BME280;3229;42.674;23.282;2023-02-27T05:47:29;94387.41;;;13.29;56.67
6393;BME280;3229;42.674;23.282;2023-02-27T05:50:02;94382.13;;;13.31;56.59
6393;BME280;3229;42.674;23.282;2023-02-27T05:52:31;94383.56;;;13.34;56.47
6393;BME280;3229;42.674;23.282;2023-02-27T05:55:02;94383.25;;;13.37;56.58
6393;BME280;3229;42.674;23.282;2023-02-27T05:57:35;94370.41;;;13.45;66.69
6393;BME280;3229;42.674;23.282;2023-02-27T06:00:10;94392.56;;;14.10;76.19
6393;BME280;3229;42.674;23.282;2023-02-27T06:02:40;94379.25;;;14.37;71.17
6393;BME280;3229;42.674;23.282;2023-02-27T06:05:13;94389.66;;;14.52;69.61
6393;BME280;3229;42.674;23.282;2023-02-27T06:07:40;94367.66;;;14.41;68.61
6393;BME280;3229;42.674;23.282;2023-02-27T06:10:10;94396.56;;;14.60;67.67
6393;BME280;3229;42.674;23.282;2023-02-27T06:12:39;94402.00;;;14.65;66.89
6393;BME280;3229;42.674;23.282;2023-02-27T06:15:08;94415.31;;;14.68;65.96
6393;BME280;3229;42.674;23.282;2023-02-27T06:17:35;94423.34;;;14.73;64.95
6393;BME280;3229;42.674;23.282;2023-02-27T06:20:04;94417.50;;;14.79;64.18
6393;BME280;3229;42.674;23.282;2023-02-27T06:22:31;94411.88;;;15.07;77.72
6393;BME280;3229;42.674;23.282;2023-02-27T06:24:58;94410.81;;;15.77;83.05
6393;BME280;3229;42.674;23.282;2023-02-27T06:27:25;94414.34;;;16.35;78.93
6393;BME280;3229;42.674;23.282;2023-02-27T06:29:52;94421.31;;;16.71;75.63
6393;BME280;3229;42.674;23.282;2023-02-27T06:32:20;94428.16;;;16.93;72.89
6393;BME280;3229;42.674;23.282;2023-02-27T06:34:49;94430.34;;;17.11;70.46
6393;BME280;3229;42.674;23.282;2023-02-27T06:37:16;94441.16;;;17.21;68.59
6393;BME280;3229;42.674;23.282;2023-02-27T06:39:43;94439.59;;;17.27;67.14
6393;BME280;3229;42.674;23.282;2023-02-27T06:42:10;94447.78;;;17.30;66.18
6393;BME280;3229;42.674;23.282;2023-02-27T06:44:37;94443.25;;;17.33;65.33
6393;BME280;3229;42.674;23.282;2023-02-27T06:47:04;94452.59;;;17.34;64.24
6393;BME280;3229;42.674;23.282;2023-02-27T06:49:32;94456.22;;;17.39;63.30
6393;BME280;3229;42.674;23.282;2023-02-27T06:51:59;94460.72;;;17.52;62.07
6393;BME280;3229;42.674;23.282;2023-02-27T06:54:26;94467.06;;;17.71;61.22
6393;BME280;3229;42.674;23.282;2023-02-27T06:56:53;94467.66;;;17.94;60.87
6393;BME280;3229;42.674;23.282;2023-02-27T06:59:20;94464.78;;;18.11;60.18
6393;BME280;3229;42.674;23.282;2023-02-27T07:01:46;94460.69;;;18.23;59.41
6393;BME280;3229;42.674;23.282;2023-02-27T07:04:14;94458.31;;;18.28;58.70
6393;BME280;3229;42.674;23.282;2023-02-27T07:06:43;94464.72;;;18.39;58.05
6393;BME280;3229;42.674;23.282;2023-02-27T07:09:10;94457.84;;;18.52;57.54
6393;BME280;3229;42.674;23.282;2023-02-27T07:11:37;94454.91;;;18.69;57.08
6393;BME280;3229;42.674;23.282;2023-02-27T07:14:03;94466.59;;;18.99;56.77
6393;BME280;3229;42.674;23.282;2023-02-27T07:16:30;94473.47;;;19.27;56.62
6393;BME280;3229;42.674;23.282;2023-02-27T07:18:57;94471.31;;;19.57;56.27
6393;BME280;3229;42.674;23.282;2023-02-27T07:21:24;94473.56;;;19.80;55.77
6393;BME280;3229;42.674;23.282;2023-02-27T07:23:52;94466.53;;;20.07;55.13
6393;BME280;3229;42.674;23.282;2023-02-27T07:26:19;94478.69;;;20.40;54.43
6393;BME280;3229;42.674;23.282;2023-02-27T07:28:46;94471.19;;;20.83;53.93
6393;BME280;3229;42.674;23.282;2023-02-27T07:31:13;94484.38;;;21.26;53.32
6393;BME280;3229;42.674;23.282;2023-02-27T07:33:40;94479.81;;;21.60;52.65
6393;BME280;3229;42.674;23.282;2023-02-27T07:36:07;94472.94;;;21.66;52.26
6393;BME280;3229;42.674;23.282;2023-02-27T07:38:33;94482.97;;;21.94;51.68
6393;BME280;3229;42.674;23.282;2023-02-27T07:41:02;94482.41;;;22.10;51.32
6393;BME280;3229;42.674;23.282;2023-02-27T07:43:28;94487.41;;;22.37;50.96
6393;BME280;3229;42.674;23.282;2023-02-27T07:45:55;94483.06;;;22.49;50.40
6393;BME280;3229;42.674;23.282;2023-02-27T07:48:22;94493.00;;;22.95;49.62
6393;BME280;3229;42.674;23.282;2023-02-27T07:50:49;94485.34;;;23.31;49.43
6393;BME280;3229;42.674;23.282;2023-02-27T07:53:16;94481.19;;;23.71;48.69
6393;BME280;3229;42.674;23.282;2023-02-27T07:55:42;94484.19;;;24.10;48.06
6393;BME280;3229;42.674;23.282;2023-02-27T07:58:10;94485.44;;;24.43;47.67
6393;BME280;3229;42.674;23.282;2023-02-27T08:00:38;94490.44;;;24.68;47.21
6393;BME280;3229;42.674;23.282;2023-02-27T08:03:05;94492.88;;;24.86;47.08
6393;BME280;3229;42.674;23.282;2023-02-27T08:05:31;94492.16;;;25.02;46.31
6393;BME280;3229;42.674;23.282;2023-02-27T08:07:58;94490.09;;;25.16;46.36
6393;BME280;3229;42.674;23.282;2023-02-27T08:10:25;94489.59;;;25.31;45.70
6393;BME280;3229;42.674;23.282;2023-02-27T08:12:52;94496.94;;;25.46;45.28
6393;BME280;3229;42.674;23.282;2023-02-27T08:15:20;94500.84;;;25.60;44.67
6393;BME280;3229;42.674;23.282;2023-02-27T08:17:47;94501.34;;;25.74;44.84
6393;BME280;3229;42.674;23.282;2023-02-27T08:20:14;94499.97;;;25.83;44.27
6393;BME280;3229;42.674;23.282;2023-02-27T08:22:41;94507.13;;;25.88;44.00
6393;BME280;3229;42.674;23.282;2023-02-27T08:25:09;94509.88;;;25.81;43.94
6393;BME280;3229;42.674;23.282;2023-02-27T08:27:37;94513.34;;;25.70;44.20
6393;BME280;3229;42.674;23.282;2023-02-27T08:30:05;94515.75;;;25.60;44.28
6393;BME280;3229;42.674;23.282;2023-02-27T08:32:34;94510.34;;;25.49;44.01
6393;BME280;3229;42.674;23.282;2023-02-27T08:35:01;94516.06;;;25.46;43.93
6393;BME280;3229;42.674;23.282;2023-02-27T08:37:28;94517.41;;;25.49;44.06
6393;BME280;3229;42.674;23.282;2023-02-27T08:39:55;94507.72;;;25.49;43.56
6393;BME280;3229;42.674;23.282;2023-02-27T08:42:21;94514.09;;;25.53;43.70
6393;BME280;3229;42.674;23.282;2023-02-27T08:44:48;94507.03;;;25.54;43.57
6393;BME280;3229;42.674;23.282;2023-02-27T08:47:15;94505.13;;;25.49;43.07
6393;BME280;3229;42.674;23.282;2023-02-27T08:49:44;94503.75;;;25.47;42.94
6393;BME280;3229;42.674;23.282;2023-02-27T08:52:10;94503.28;;;25.50;42.92
6393;BME280;3229;42.674;23.282;2023-02-27T08:54:37;94505.50;;;25.41;42.63
6393;BME280;3229;42.674;23.282;2023-02-27T08:57:04;94510.75;;;25.30;42.75
6393;BME280;3229;42.674;23.282;2023-02-27T08:59:31;94518.09;;;25.16;42.83
6393;BME280;3229;42.674;23.282;2023-02-27T09:01:58;94519.63;;;25.00;43.02
6393;BME280;3229;42.674;23.282;2023-02-27T09:04:25;94505.63;;;24.83;42.71
6393;BME280;3229;42.674;23.282;2023-02-27T09:06:54;94523.03;;;24.77;42.56
6393;BME280;3229;42.674;23.282;2023-02-27T09:09:21;94534.78;;;24.74;42.96
6393;BME280;3229;42.674;23.282;2023-02-27T09:11:49;94528.19;;;24.60;42.76
6393;BME280;3229;42.674;23.282;2023-02-27T09:14:16;94541.16;;;24.55;42.77
6393;BME280;3229;42.674;23.282;2023-02-27T09:16:43;94536.94;;;24.42;42.45
6393;BME280;3229;42.674;23.282;2023-02-27T09:19:10;94543.38;;;24.28;42.08
6393;BME280;3229;42.674;23.282;2023-02-27T09:21:38;94547.81;;;24.16;42.40
6393;BME280;3229;42.674;23.282;2023-02-27T09:24:07;94539.38;;;24.02;42.24
6393;BME280;3229;42.674;23.282;2023-02-27T09:26:35;94541.72;;;23.92;42.25
6393;BME280;3229;42.674;23.282;2023-02-27T09:29:02;94541.97;;;23.90;42.17
6393;BME280;3229;42.674;23.282;2023-02-27T09:31:29;94554.09;;;23.85;42.37
6393;BME280;3229;42.674;23.282;2023-02-27T09:33:56;94550.66;;;23.72;41.93
6393;BME280;3229;42.674;23.282;2023-02-27T09:36:23;94554.66;;;23.57;42.23
6393;BME280;3229;42.674;23.282;2023-02-27T09:38:50;94551.06;;;23.39;42.00
6393;BME280;3229;42.674;23.282;2023-02-27T09:41:32;94553.41;;;23.29;42.24
6393;BME280;3229;42.674;23.282;2023-02-27T09:44:04;94548.72;;;23.19;42.22
6393;BME280;3229;42.674;23.282;2023-02-27T09:46:32;94552.66;;;23.10;42.27
6393;BME280;3229;42.674;23.282;2023-02-27T09:49:00;94562.34;;;23.03;42.19
6393;BME280;3229;42.674;23.282;2023-02-27T09:51:29;94564.03;;;22.97;42.33
6393;BME280;3229;42.674;23.282;2023-02-27T09:53:59;94561.47;;;22.91;42.19
6393;BME280;3229;42.674;23.282;2023-02-27T09:56:30;94563.97;;;22.79;42.52
6393;BME280;3229;42.674;23.282;2023-02-27T09:59:04;94561.06;;;22.69;42.46
6393;BME280;3229;42.674;23.282;2023-02-27T10:01:42;94572.00;;;22.59;42.38
6393;BME280;3229;42.674;23.282;2023-02-27T10:04:28;94581.91;;;22.50;42.43
6393;BME280;3229;42.674;23.282;2023-02-27T10:06:59;94579.34;;;22.44;42.60
6393;BME280;3229;42.674;23.282;2023-02-27T10:09:34;94574.53;;;22.41;42.53
6393;BME280;3229;42.674;23.282;2023-02-27T10:12:17;94577.59;;;22.38;42.60
6393;BME280;3229;42.674;23.282;2023-02-27T10:14:50;94583.22;;;22.35;42.59
6393;BME280;3229;42.674;23.282;2023-02-27T10:17:22;94580.47;;;22.29;42.67
6393;BME280;3229;42.674;23.282;2023-02-27T10:19:52;94587.25;;;22.31;42.37
6393;BME280;3229;42.674;23.282;2023-02-27T10:22:25;94580.09;;;22.26;42.68
6393;BME280;3229;42.674;23.282;2023-02-27T10:24:57;94582.31;;;22.22;42.67
6393;BME280;3229;42.674;23.282;2023-02-27T10:27:29;94578.97;;;22.15;42.82
6393;BME280;3229;42.674;23.282;2023-02-27T10:29:59;94569.78;;;22.13;42.77
6393;BME280;3229;42.674;23.282;2023-02-27T10:32:35;94568.13;;;22.18;42.83
6393;BME280;3229;42.674;23.282;2023-02-27T10:35:08;94574.88;;;22.26;42.55
6393;BME280;3229;42.674;23.282;2023-02-27T10:37:48;94565.41;;;22.32;42.38
6393;BME280;3229;42.674;23.282;2023-02-27T10:40:16;94564.41;;;22.33;42.15
6393;BME280;3229;42.674;23.282;2023-02-27T10:42:46;94569.03;;;22.31;42.46
6393;BME280;3229;42.674;23.282;2023-02-27T10:45:15;94569.63;;;22.33;42.39
6393;BME280;3229;42.674;23.282;2023-02-27T10:47:42;94575.91;;;22.25;42.60
6393;BME280;3229;42.674;23.282;2023-02-27T10:50:21;94573.06;;;22.26;42.45
6393;BME280;3229;42.674;23.282;2023-02-27T10:52:49;94570.88;;;22.23;42.14
6393;BME280;3229;42.674;23.282;2023-02-27T10:55:21;94562.72;;;22.20;42.49
6393;BME280;3229;42.674;23.282;2023-02-27T10:57:49;94564.16;;;22.16;42.33
6393;BME280;3229;42.674;23.282;2023-02-27T11:00:31;94568.56;;;22.09;42.44
6393;BME280;3229;42.674;23.282;2023-02-27T11:03:00;94569.78;;;22.06;42.65
6393;BME280;3229;42.674;23.282;2023-02-27T11:05:28;94561.81;;;22.01;42.47
6393;BME280;3229;42.674;23.282;2023-02-27T11:08:10;94556.19;;;22.04;42.55
6393;BME280;3229;42.674;23.282;2023-02-27T11:10:52;94563.03;;;21.98;42.64
6393;BME280;3229;42.674;23.282;2023-02-27T11:13:21;94557.50;;;21.88;42.82
6393;BME280;3229;42.674;23.282;2023-02-27T11:16:05;94544.00;;;21.73;42.80
6393;BME280;3229;42.674;23.282;2023-02-27T11:18:33;94540.59;;;21.72;42.76
6393;BME280;3229;42.674;23.282;2023-02-27T11:21:28;94541.00;;;21.69;42.92
6393;BME280;3229;42.674;23.282;2023-02-27T11:23:58;94549.28;;;21.60;43.07
6393;BME280;3229;42.674;23.282;2023-02-27T11:26:28;94543.16;;;21.41;43.42
6393;BME280;3229;42.674;23.282;2023-02-27T11:29:13;94542.19;;;21.28;43.29
6393;BME280;3229;42.674;23.282;2023-02-27T11:31:46;94527.66;;;21.14;43.59
6393;BME280;3229;42.674;23.282;2023-02-27T11:34:19;94529.28;;;21.02;43.75
6393;BME280;3229;42.674;23.282;2023-02-27T11:36:49;94540.34;;;20.91;43.84
6393;BME280;3229;42.674;23.282;2023-02-27T11:39:24;94534.97;;;20.79;43.92
6393;BME280;3229;42.674;23.282;2023-02-27T11:41:52;94540.00;;;20.74;43.84
6393;BME280;3229;42.674;23.282;2023-02-27T11:44:24;94535.81;;;20.66;44.29
6393;BME280;3229;42.674;23.282;2023-02-27T11:47:06;94534.03;;;20.60;44.08
6393;BME280;3229;42.674;23.282;2023-02-27T11:49:37;94529.44;;;20.56;44.20
6393;BME280;3229;42.674;23.282;2023-02-27T11:52:11;94540.81;;;20.54;44.30
6393;BME280;3229;42.674;23.282;2023-02-27T11:54:44;94538.84;;;20.57;44.39
6393;BME280;3229;42.674;23.282;2023-02-27T11:57:20;94540.59;;;20.63;44.19
6393;BME280;3229;42.674;23.282;2023-02-27T11:59:55;94539.41;;;20.65;44.33
6393;BME280;3229;42.674;23.282;2023-02-27T12:02:28;94529.41;;;20.62;44.33
6393;BME280;3229;42.674;23.282;2023-02-27T12:05:00;94532.22;;;20.61;44.51
6393;BME280;3229;42.674;23.282;2023-02-27T12:07:34;94530.63;;;20.60;44.20
6393;BME280;3229;42.674;23.282;2023-02-27T12:10:08;94528.63;;;20.62;44.40
6393;BME280;3229;42.674;23.282;2023-02-27T12:12:43;94531.22;;;20.62;44.72
6393;BME280;3229;42.674;23.282;2023-02-27T12:15:26;94529.41;;;20.62;44.47
6393;BME280;3229;42.674;23.282;2023-02-27T12:18:07;94526.41;;;20.59;44.57
6393;BME280;3229;42.674;23.282;2023-02-27T12:20:40;94525.00;;;20.63;44.82
6393;BME280;3229;42.674;23.282;2023-02-27T12:23:16;94512.03;;;20.63;44.55
6393;BME280;3229;42.674;23.282;2023-02-27T12:25:47;94520.44;;;20.65;44.41
6393;BME280;3229;42.674;23.282;2023-02-27T12:28:22;94528.41;;;20.70;44.35
6393;BME280;3229;42.674;23.282;2023-02-27T12:31:03;94533.56;;;20.76;44.42
6393;BME280;3229;42.674;23.282;2023-02-27T12:33:38;94528.38;;;20.83;44.29
6393;BME280;3229;42.674;23.282;2023-02-27T12:36:09;94521.53;;;20.89;44.27
6393;BME280;3229;42.674;23.282;2023-02-27T12:38:38;94508.59;;;20.82;44.38
6393;BME280;3229;42.674;23.282;2023-02-27T12:41:31;94516.22;;;20.70;44.44
6393;BME280;3229;42.674;23.282;2023-02-27T12:44:19;94520.44;;;20.58;44.68
6393;BME280;3229;42.674;23.282;2023-02-27T12:46:55;94516.63;;;20.47;44.90
6393;BME280;3229;42.674;23.282;2023-02-27T12:49:33;94511.25;;;20.36;45.09
6393;BME280;3229;42.674;23.282;2023-02-27T12:52:11;94518.06;;;20.30;45.06
6393;BME280;3229;42.674;23.282;2023-02-27T12:54:53;94516.47;;;20.22;45.41
6393;BME280;3229;42.674;23.282;2023-02-27T12:57:28;94513.28;;;20.14;45.25
6393;BME280;3229;42.674;23.282;2023-02-27T13:00:07;94513.28;;;20.07;45.47
6393;BME280;3229;42.674;23.282;2023-02-27T13:02:57;94515.88;;;20.00;45.65
6393;BME280;3229;42.674;23.282;2023-02-27T13:05:35;94529.66;;;19.94;45.70
6393;BME280;3229;42.674;23.282;2023-02-27T13:08:12;94519.69;;;19.91;45.80
6393;BME280;3229;42.674;23.282;2023-02-27T13:10:44;94521.47;;;19.91;45.75
6393;BME280;3229;42.674;23.282;2023-02-27T13:13:19;94521.66;;;19.89;45.73
6393;BME280;3229;42.674;23.282;2023-02-27T13:15:52;94530.06;;;19.91;45.72
6393;BME280;3229;42.674;23.282;2023-02-27T13:18:36;94524.44;;;19.94;45.55
6393;BME280;3229;42.674;23.282;2023-02-27T13:21:10;94524.28;;;19.96;45.73
6393;BME280;3229;42.674;23.282;2023-02-27T13:23:46;94529.88;;;19.99;45.65
6393;BME280;3229;42.674;23.282;2023-02-27T13:26:19;94522.88;;;20.00;45.52
6393;BME280;3229;42.674;23.282;2023-02-27T13:28:49;94519.28;;;20.01;45.55
6393;BME280;3229;42.674;23.282;2023-02-27T13:31:25;94522.09;;;19.99;45.66
6393;BME280;3229;42.674;23.282;2023-02-27T13:34:06;94512.09;;;19.96;45.75
6393;BME280;3229;42.674;23.282;2023-02-27T13:36:37;94498.72;;;19.93;45.83
6393;BME280;3229;42.674;23.282;2023-02-27T13:39:40;94496.50;;;19.90;45.78
6393;BME280;3229;42.674;23.282;2023-02-27T13:42:51;94508.69;;;19.83;45.79
6393;BME280;3229;42.674;23.282;2023-02-27T13:45:45;94483.69;;;19.48;45.86